sensor_id;sensor_type;location;lat;lon;timestamp;pressure;altitude;pressure_sealevel;temperature;humidity
38452;BME280;24231;52.514;13.438;2023-07-16T00:02:02;100251.81;;;27.80;43.23
38452;BME280;24231;52.514;13.438;2023-07-16T00:04:30;100246.97;;;28.74;42.13
38452;BME280;24231;52.514;13.438;2023-07-16T00:07:02;100252.60;;;29.09;41.99
38452;BME280;24231;52.514;13.438;2023-07-16T00:09:30;100255.82;;;28.71;42.71
38452;BME280;24231;52.514;13.438;2023-07-16T00:11:57;100262.87;;;29.17;41.91
38452;BME280;24231;52.514;13.438;2023-07-16T00:14:24;100256.66;;;28.89;42.80
38452;BME280;24231;52.514;13.438;2023-07-16T00:16:51;100256.79;;;28.68;43.02
38452;BME280;24231;52.514;13.438;2023-07-16T00:19:18;100252.43;;;28.46;42.96
38452;BME280;24231;52.514;13.438;2023-07-16T00:21:45;100258.17;;;28.80;42.32
38452;BME280;24231;52.514;13.438;2023-07-16T00:24:12;100255.49;;;28.22;43.29
38452;BME280;24231;52.514;13.438;2023-07-16T00:26:40;100252.79;;;27.45;44.75
38452;BME280;24231;52.514;13.438;2023-07-16T00:29:07;100256.89;;;28.89;41.31
38452;BME280;24231;52.514;13.438;2023-07-16T00:31:34;100263.43;;;29.66;39.58
38452;BME280;24231;52.514;13.438;2023-07-16T00:34:01;100267.45;;;28.91;41.02
38452;BME280;24231;52.514;13.438;2023-07-16T00:36:27;100267.86;;;28.95;40.64
38452;BME280;24231;52.514;13.438;2023-07-16T00:38:54;100267.46;;;28.54;41.77
38452;BME280;24231;52.514;13.438;2023-07-16T00:41:21;100272.99;;;29.24;40.56
38452;BME280;24231;52.514;13.438;2023-07-16T00:43:48;100275.98;;;29.73;39.42
38452;BME280;24231;52.514;13.438;2023-07-16T00:46:16;100291.20;;;28.42;41.69
38452;BME280;24231;52.514;13.438;2023-07-16T00:48:44;100305.10;;;29.24;40.57
38452;BME280;24231;52.514;13.438;2023-07-16T00:51:12;100310.59;;;29.67;39.80
38452;BME280;24231;52.514;13.438;2023-07-16T00:53:41;100319.40;;;28.65;41.78
38452;BME280;24231;52.514;13.438;2023-07-16T00:56:08;100343.74;;;28.98;41.23
38452;BME280;24231;52.514;13.438;2023-07-16T00:58:36;100352.32;;;28.71;42.01
38452;BME280;24231;52.514;13.438;2023-07-16T01:01:03;100365.47;;;27.14;45.86
38452;BME280;24231;52.514;13.438;2023-07-16T01:03:30;100370.31;;;29.02;42.44
38452;BME280;24231;52.514;13.438;2023-07-16T01:06:00;100386.82;;;27.73;45.09
38452;BME280;24231;52.514;13.438;2023-07-16T01:08:32;100415.25;;;27.99;44.60
38452;BME280;24231;52.514;13.438;2023-07-16T01:11:03;100433.12;;;28.58;43.56
38452;BME280;24231;52.514;13.438;2023-07-16T01:13:30;100462.38;;;25.45;52.48
38452;BME280;24231;52.514;13.438;2023-07-16T01:15:58;100480.20;;;25.38;53.65
38452;BME280;24231;52.514;13.438;2023-07-16T01:18:25;100499.49;;;25.37;54.13
38452;BME280;24231;52.514;13.438;2023-07-16T01:20:52;100532.63;;;25.95;52.47
38452;BME280;24231;52.514;13.438;2023-07-16T01:23:32;100551.22;;;25.24;54.80
38452;BME280;24231;52.514;13.438;2023-07-16T01:26:09;100561.79;;;24.43;57.60
38452;BME280;24231;52.514;13.438;2023-07-16T01:29:31;100568.65;;;23.54;62.12
38452;BME280;24231;52.514;13.438;2023-07-16T01:32:00;100566.03;;;24.51;59.35
38452;BME280;24231;52.514;13.438;2023-07-16T01:34:30;100563.00;;;24.47;58.57
38452;BME280;24231;52.514;13.438;2023-07-16T01:36:58;100566.94;;;24.69;57.39
38452;BME280;24231;52.514;13.438;2023-07-16T01:39:26;100571.24;;;24.39;57.96
38452;BME280;24231;52.514;13.438;2023-07-16T01:41:54;100574.64;;;24.37;58.46
38452;BME280;24231;52.514;13.438;2023-07-16T01:44:22;100568.82;;;23.69;60.29
38452;BME280;24231;52.514;13.438;2023-07-16T01:47:01;100557.01;;;24.36;58.12
38452;BME280;24231;52.514;13.438;2023-07-16T01:49:30;100552.10;;;24.39;57.62
38452;BME280;24231;52.514;13.438;2023-07-16T01:51:57;100547.28;;;24.78;56.51
38452;BME280;24231;52.514;13.438;2023-07-16T01:54:24;100547.21;;;24.44;57.77
38452;BME280;24231;52.514;13.438;2023-07-16T01:56:52;100553.86;;;24.56;57.46
38452;BME280;24231;52.514;13.438;2023-07-16T01:59:19;100552.28;;;23.99;59.56
38452;BME280;24231;52.514;13.438;2023-07-16T02:01:47;100550.12;;;23.99;58.95
38452;BME280;24231;52.514;13.438;2023-07-16T02:04:14;100555.74;;;24.37;57.59
38452;BME280;24231;52.514;13.438;2023-07-16T02:06:41;100556.60;;;24.15;58.22
38452;BME280;24231;52.514;13.438;2023-07-16T02:09:09;100551.92;;;24.45;56.53
38452;BME280;24231;52.514;13.438;2023-07-16T02:11:36;100537.49;;;24.06;57.11
38452;BME280;24231;52.514;13.438;2023-07-16T02:14:03;100532.63;;;24.41;56.05
38452;BME280;24231;52.514;13.438;2023-07-16T02:16:30;100531.31;;;24.75;55.43
38452;BME280;24231;52.514;13.438;2023-07-16T02:18:57;100524.79;;;25.08;53.20
38452;BME280;24231;52.514;13.438;2023-07-16T02:21:24;100517.84;;;25.08;53.64
38452;BME280;24231;52.514;13.438;2023-07-16T02:23:51;100529.83;;;25.49;53.71
38452;BME280;24231;52.514;13.438;2023-07-16T02:26:18;100545.53;;;24.73;56.04
38452;BME280;24231;52.514;13.438;2023-07-16T02:28:45;100549.40;;;23.90;60.56
38452;BME280;24231;52.514;13.438;2023-07-16T02:31:12;100559.37;;;25.15;56.76
38452;BME280;24231;52.514;13.438;2023-07-16T02:33:39;100561.30;;;24.67;58.89
38452;BME280;24231;52.514;13.438;2023-07-16T02:36:06;100583.58;;;24.44;60.66
38452;BME280;24231;52.514;13.438;2023-07-16T02:38:33;100568.67;;;24.25;61.43
38452;BME280;24231;52.514;13.438;2023-07-16T02:40:59;100549.18;;;23.76;62.14
38452;BME280;24231;52.514;13.438;2023-07-16T02:43:26;100538.67;;;24.93;59.31
38452;BME280;24231;52.514;13.438;2023-07-16T02:45:53;100533.95;;;25.86;56.16
38452;BME280;24231;52.514;13.438;2023-07-16T02:48:20;100546.13;;;26.17;54.29
38452;BME280;24231;52.514;13.438;2023-07-16T02:50:47;100561.76;;;25.05;58.02
38452;BME280;24231;52.514;13.438;2023-07-16T02:53:14;100570.62;;;25.24;58.51
38452;BME280;24231;52.514;13.438;2023-07-16T02:55:41;100569.97;;;24.51;60.75
38452;BME280;24231;52.514;13.438;2023-07-16T02:58:07;100570.59;;;25.10;58.46
38452;BME280;24231;52.514;13.438;2023-07-16T03:00:35;100582.82;;;25.33;58.06
38452;BME280;24231;52.514;13.438;2023-07-16T03:03:03;100586.25;;;26.25;55.43
38452;BME280;24231;52.514;13.438;2023-07-16T03:05:30;100590.51;;;25.15;59.29
38452;BME280;24231;52.514;13.438;2023-07-16T03:07:56;100589.15;;;25.81;56.99
38452;BME280;24231;52.514;13.438;2023-07-16T03:10:24;100579.46;;;26.38;54.50
38452;BME280;24231;52.514;13.438;2023-07-16T03:12:51;100571.15;;;26.15;55.74
38452;BME280;24231;52.514;13.438;2023-07-16T03:15:18;100553.61;;;25.69;55.97
38452;BME280;24231;52.514;13.438;2023-07-16T03:17:45;100547.99;;;24.12;61.52
38452;BME280;24231;52.514;13.438;2023-07-16T03:20:12;100545.06;;;25.41;57.84
38452;BME280;24231;52.514;13.438;2023-07-16T03:22:39;100535.12;;;24.73;59.54
38452;BME280;24231;52.514;13.438;2023-07-16T03:25:07;100550.56;;;25.81;56.98
38452;BME280;24231;52.514;13.438;2023-07-16T03:27:34;100542.86;;;24.01;61.55
38452;BME280;24231;52.514;13.438;2023-07-16T03:30:02;100523.53;;;24.17;60.94
38452;BME280;24231;52.514;13.438;2023-07-16T03:32:29;100520.69;;;24.33;61.36
38452;BME280;24231;52.514;13.438;2023-07-16T03:34:56;100524.50;;;23.14;65.06
38452;BME280;24231;52.514;13.438;2023-07-16T03:37:23;100539.79;;;23.02;66.30
38452;BME280;24231;52.514;13.438;2023-07-16T03:39:51;100549.92;;;24.36;62.99
38452;BME280;24231;52.514;13.438;2023-07-16T03:42:18;100563.13;;;24.40;62.15
38452;BME280;24231;52.514;13.438;2023-07-16T03:44:45;100550.69;;;23.51;64.71
38452;BME280;24231;52.514;13.438;2023-07-16T03:47:12;100509.65;;;24.47;61.95
38452;BME280;24231;52.514;13.438;2023-07-16T03:49:38;100531.91;;;24.65;60.30
38452;BME280;24231;52.514;13.438;2023-07-16T03:52:06;100534.86;;;25.49;57.40
38452;BME280;24231;52.514;13.438;2023-07-16T03:54:33;100532.25;;;25.41;57.37
38452;BME280;24231;52.514;13.438;2023-07-16T03:57:00;100530.84;;;25.09;58.63
38452;BME280;24231;52.514;13.438;2023-07-16T03:59:27;100529.85;;;25.68;56.00
38452;BME280;24231;52.514;13.438;2023-07-16T04:01:54;100537.63;;;26.03;56.01
38452;BME280;24231;52.514;13.438;2023-07-16T04:04:20;100549.17;;;25.83;56.14
38452;BME280;24231;52.514;13.438;2023-07-16T04:06:47;100555.91;;;25.54;57.97
38452;BME280;24231;52.514;13.438;2023-07-16T04:09:14;100559.70;;;25.28;57.76
38452;BME280;24231;52.514;13.438;2023-07-16T04:11:41;100568.75;;;25.02;58.36
38452;BME280;24231;52.514;13.438;2023-07-16T04:14:08;100568.73;;;24.12;61.29
38452;BME280;24231;52.514;13.438;2023-07-16T04:16:35;100558.42;;;24.95;59.00
38452;BME280;24231;52.514;13.438;2023-07-16T04:19:02;100540.51;;;25.42;57.34
38452;BME280;24231;52.514;13.438;2023-07-16T04:21:28;100533.80;;;25.40;56.92
38452;BME280;24231;52.514;13.438;2023-07-16T04:23:55;100544.61;;;26.38;53.90
38452;BME280;24231;52.514;13.438;2023-07-16T04:26:23;100552.83;;;25.95;54.61
38452;BME280;24231;52.514;13.438;2023-07-16T04:28:50;100571.35;;;25.73;55.30
38452;BME280;24231;52.514;13.438;2023-07-16T04:31:16;100578.52;;;25.24;57.70
38452;BME280;24231;52.514;13.438;2023-07-16T04:33:43;100582.77;;;25.14;57.92
38452;BME280;24231;52.514;13.438;2023-07-16T04:36:10;100582.36;;;24.51;59.38
38452;BME280;24231;52.514;13.438;2023-07-16T04:38:37;100574.98;;;24.03;61.98
38452;BME280;24231;52.514;13.438;2023-07-16T04:41:04;100573.88;;;24.27;60.91
38452;BME280;24231;52.514;13.438;2023-07-16T04:43:31;100585.59;;;24.52;59.83
38452;BME280;24231;52.514;13.438;2023-07-16T04:45:58;100588.63;;;24.15;61.67
38452;BME280;24231;52.514;13.438;2023-07-16T04:48:26;100588.36;;;23.22;64.59
38452;BME280;24231;52.514;13.438;2023-07-16T04:50:53;100589.48;;;23.35;64.56
38452;BME280;24231;52.514;13.438;2023-07-16T04:53:21;100598.56;;;23.65;63.51
38452;BME280;24231;52.514;13.438;2023-07-16T04:55:48;100608.17;;;23.98;61.60
38452;BME280;24231;52.514;13.438;2023-07-16T04:58:16;100618.33;;;24.27;61.15
38452;BME280;24231;52.514;13.438;2023-07-16T05:00:42;100624.97;;;23.01;65.59
38452;BME280;24231;52.514;13.438;2023-07-16T05:03:09;100619.93;;;22.96;66.20
38452;BME280;24231;52.514;13.438;2023-07-16T05:05:36;100617.34;;;22.88;66.62
38452;BME280;24231;52.514;13.438;2023-07-16T05:08:04;100636.90;;;23.39;64.32
38452;BME280;24231;52.514;13.438;2023-07-16T05:10:31;100652.68;;;24.07;62.32
38452;BME280;24231;52.514;13.438;2023-07-16T05:12:57;100661.09;;;23.49;63.96
38452;BME280;24231;52.514;13.438;2023-07-16T05:15:24;100650.60;;;24.02;62.31
38452;BME280;24231;52.514;13.438;2023-07-16T05:17:51;100659.50;;;24.04;61.80
38452;BME280;24231;52.514;13.438;2023-07-16T05:20:18;100669.11;;;23.77;62.59
38452;BME280;24231;52.514;13.438;2023-07-16T05:22:45;100661.81;;;24.22;60.96
38452;BME280;24231;52.514;13.438;2023-07-16T05:25:12;100648.53;;;23.52;63.97
38452;BME280;24231;52.514;13.438;2023-07-16T05:27:39;100639.43;;;24.40;61.09
38452;BME280;24231;52.514;13.438;2023-07-16T05:30:07;100643.28;;;24.94;58.96
38452;BME280;24231;52.514;13.438;2023-07-16T05:32:35;100638.38;;;24.48;60.60
38452;BME280;24231;52.514;13.438;2023-07-16T05:35:03;100637.92;;;24.86;59.06
38452;BME280;24231;52.514;13.438;2023-07-16T05:37:30;100639.72;;;26.14;54.14
38452;BME280;24231;52.514;13.438;2023-07-16T05:39:57;100645.80;;;25.95;55.04
38452;BME280;24231;52.514;13.438;2023-07-16T05:42:24;100649.45;;;26.05;54.35
38452;BME280;24231;52.514;13.438;2023-07-16T05:44:51;100654.91;;;26.34;53.76
38452;BME280;24231;52.514;13.438;2023-07-16T05:47:18;100662.40;;;25.29;56.45
38452;BME280;24231;52.514;13.438;2023-07-16T05:49:45;100662.05;;;26.50;53.09
38452;BME280;24231;52.514;13.438;2023-07-16T05:52:13;100660.75;;;26.11;54.59
38452;BME280;24231;52.514;13.438;2023-07-16T05:54:40;100660.12;;;25.70;55.34
38452;BME280;24231;52.514;13.438;2023-07-16T05:57:09;100659.12;;;25.82;54.47
38452;BME280;24231;52.514;13.438;2023-07-16T05:59:37;100658.81;;;25.67;54.88
38452;BME280;24231;52.514;13.438;2023-07-16T06:02:04;100659.34;;;26.63;52.17
38452;BME280;24231;52.514;13.438;2023-07-16T06:04:31;100670.15;;;27.17;50.67
38452;BME280;24231;52.514;13.438;2023-07-16T06:06:58;100665.41;;;27.32;49.57
38452;BME280;24231;52.514;13.438;2023-07-16T06:09:25;100667.17;;;27.28;49.70
38452;BME280;24231;52.514;13.438;2023-07-16T06:11:53;100669.67;;;27.87;48.34
38452;BME280;24231;52.514;13.438;2023-07-16T06:14:20;100662.62;;;28.37;46.08
38452;BME280;24231;52.514;13.438;2023-07-16T06:16:48;100663.00;;;29.29;44.13
38452;BME280;24231;52.514;13.438;2023-07-16T06:19:15;100659.64;;;28.52;45.74
38452;BME280;24231;52.514;13.438;2023-07-16T06:21:42;100660.62;;;29.33;44.11
38452;BME280;24231;52.514;13.438;2023-07-16T06:24:10;100668.24;;;29.06;44.15
38452;BME280;24231;52.514;13.438;2023-07-16T06:26:37;100670.67;;;28.79;45.25
38452;BME280;24231;52.514;13.438;2023-07-16T06:29:05;100668.81;;;30.63;41.25
38452;BME280;24231;52.514;13.438;2023-07-16T06:31:33;100673.44;;;29.84;42.72
38452;BME280;24231;52.514;13.438;2023-07-16T06:34:00;100667.73;;;30.65;40.55
38452;BME280;24231;52.514;13.438;2023-07-16T06:36:27;100672.85;;;30.92;39.91
38452;BME280;24231;52.514;13.438;2023-07-16T06:38:55;100675.88;;;29.58;42.52
38452;BME280;24231;52.514;13.438;2023-07-16T06:41:22;100681.56;;;31.37;38.64
38452;BME280;24231;52.514;13.438;2023-07-16T06:43:49;100682.08;;;31.67;38.67
38452;BME280;24231;52.514;13.438;2023-07-16T06:46:17;100682.55;;;31.59;38.38
38452;BME280;24231;52.514;13.438;2023-07-16T06:48:44;100676.84;;;31.87;37.48
38452;BME280;24231;52.514;13.438;2023-07-16T06:51:12;100682.70;;;31.76;37.50
38452;BME280;24231;52.514;13.438;2023-07-16T06:53:39;100686.63;;;32.48;36.56
38452;BME280;24231;52.514;13.438;2023-07-16T06:56:06;100691.85;;;31.27;38.15
38452;BME280;24231;52.514;13.438;2023-07-16T06:58:34;100688.16;;;31.04;39.28
38452;BME280;24231;52.514;13.438;2023-07-16T07:01:01;100688.74;;;30.52;39.33
38452;BME280;24231;52.514;13.438;2023-07-16T07:03:28;100696.44;;;30.43;39.87
38452;BME280;24231;52.514;13.438;2023-07-16T07:05:56;100694.65;;;31.09;39.27
38452;BME280;24231;52.514;13.438;2023-07-16T07:08:23;100698.96;;;31.37;37.88
38452;BME280;24231;52.514;13.438;2023-07-16T07:10:51;100700.81;;;30.34;39.78
38452;BME280;24231;52.514;13.438;2023-07-16T07:13:18;100707.30;;;29.94;40.62
38452;BME280;24231;52.514;13.438;2023-07-16T07:15:45;100709.00;;;31.17;39.04
38452;BME280;24231;52.514;13.438;2023-07-16T07:18:13;100715.83;;;29.33;42.04
38452;BME280;24231;52.514;13.438;2023-07-16T07:20:41;100712.79;;;30.49;40.10
38452;BME280;24231;52.514;13.438;2023-07-16T07:23:08;100715.66;;;29.78;41.09
38452;BME280;24231;52.514;13.438;2023-07-16T07:25:35;100718.99;;;29.37;42.06
38452;BME280;24231;52.514;13.438;2023-07-16T07:28:03;100720.88;;;29.30;41.44
38452;BME280;24231;52.514;13.438;2023-07-16T07:30:30;100720.00;;;29.48;41.94
38452;BME280;24231;52.514;13.438;2023-07-16T07:32:57;100720.90;;;29.53;40.93
38452;BME280;24231;52.514;13.438;2023-07-16T07:35:25;100723.07;;;29.92;40.53
38452;BME280;24231;52.514;13.438;2023-07-16T07:37:51;100722.76;;;29.67;40.85
38452;BME280;24231;52.514;13.438;2023-07-16T07:40:19;100727.28;;;29.94;40.35
38452;BME280;24231;52.514;13.438;2023-07-16T07:42:46;100728.22;;;31.30;38.41
38452;BME280;24231;52.514;13.438;2023-07-16T07:45:14;100720.92;;;31.36;37.28
38452;BME280;24231;52.514;13.438;2023-07-16T07:47:42;100728.92;;;31.42;37.31
38452;BME280;24231;52.514;13.438;2023-07-16T07:50:10;100724.50;;;29.90;39.80
38452;BME280;24231;52.514;13.438;2023-07-16T07:52:37;100726.98;;;29.53;41.42
38452;BME280;24231;52.514;13.438;2023-07-16T07:55:05;100736.37;;;30.09;39.77
38452;BME280;24231;52.514;13.438;2023-07-16T07:57:31;100737.12;;;30.78;38.19
38452;BME280;24231;52.514;13.438;2023-07-16T07:59:59;100736.83;;;30.73;38.10
38452;BME280;24231;52.514;13.438;2023-07-16T08:02:27;100737.80;;;31.16;37.11
38452;BME280;24231;52.514;13.438;2023-07-16T08:04:55;100744.70;;;29.78;39.53
38452;BME280;24231;52.514;13.438;2023-07-16T08:07:23;100742.93;;;30.83;37.55
38452;BME280;24231;52.514;13.438;2023-07-16T08:09:50;100750.01;;;31.14;36.84
38452;BME280;24231;52.514;13.438;2023-07-16T08:12:16;100751.46;;;31.61;36.63
38452;BME280;24231;52.514;13.438;2023-07-16T08:14:44;100747.26;;;30.52;37.24
38452;BME280;24231;52.514;13.438;2023-07-16T08:17:11;100746.63;;;31.57;36.41
38452;BME280;24231;52.514;13.438;2023-07-16T08:19:39;100751.69;;;31.76;34.60
38452;BME280;24231;52.514;13.438;2023-07-16T08:22:07;100751.41;;;31.64;34.76
38452;BME280;24231;52.514;13.438;2023-07-16T08:24:34;100758.96;;;30.32;36.43
38452;BME280;24231;52.514;13.438;2023-07-16T08:27:02;100756.30;;;29.70;37.37
38452;BME280;24231;52.514;13.438;2023-07-16T08:29:29;100762.23;;;30.02;37.30
38452;BME280;24231;52.514;13.438;2023-07-16T08:31:57;100763.12;;;30.68;34.89
38452;BME280;24231;52.514;13.438;2023-07-16T08:34:24;100764.26;;;31.04;34.16
38452;BME280;24231;52.514;13.438;2023-07-16T08:36:51;100765.14;;;30.88;34.40
38452;BME280;24231;52.514;13.438;2023-07-16T08:39:18;100763.91;;;31.31;32.89
38452;BME280;24231;52.514;13.438;2023-07-16T08:41:46;100766.23;;;31.71;32.30
38452;BME280;24231;52.514;13.438;2023-07-16T08:44:13;100772.65;;;31.87;31.61
38452;BME280;24231;52.514;13.438;2023-07-16T08:46:41;100773.49;;;32.02;31.06
38452;BME280;24231;52.514;13.438;2023-07-16T08:49:11;100781.60;;;31.98;30.93
38452;BME280;24231;52.514;13.438;2023-07-16T08:51:38;100778.01;;;31.93;30.63
38452;BME280;24231;52.514;13.438;2023-07-16T08:54:06;100774.09;;;31.82;30.86
38452;BME280;24231;52.514;13.438;2023-07-16T08:56:34;100775.88;;;30.00;32.67
38452;BME280;24231;52.514;13.438;2023-07-16T08:59:01;100770.23;;;30.51;32.22
38452;BME280;24231;52.514;13.438;2023-07-16T09:01:29;100774.40;;;29.91;33.20
38452;BME280;24231;52.514;13.438;2023-07-16T09:03:57;100773.44;;;30.41;33.25
38452;BME280;24231;52.514;13.438;2023-07-16T09:06:24;100773.37;;;30.40;33.20
38452;BME280;24231;52.514;13.438;2023-07-16T09:08:51;100783.61;;;30.90;32.54
38452;BME280;24231;52.514;13.438;2023-07-16T09:11:19;100782.61;;;30.91;32.50
38452;BME280;24231;52.514;13.438;2023-07-16T09:13:46;100791.51;;;30.49;33.33
38452;BME280;24231;52.514;13.438;2023-07-16T09:16:14;100790.58;;;30.98;31.95
38452;BME280;24231;52.514;13.438;2023-07-16T09:18:42;100787.93;;;31.24;31.96
38452;BME280;24231;52.514;13.438;2023-07-16T09:21:09;100785.34;;;30.97;31.60
38452;BME280;24231;52.514;13.438;2023-07-16T09:23:37;100783.94;;;30.84;31.47
38452;BME280;24231;52.514;13.438;2023-07-16T09:26:04;100793.07;;;30.74;31.76
38452;BME280;24231;52.514;13.438;2023-07-16T09:28:32;100784.96;;;30.13;32.58
38452;BME280;24231;52.514;13.438;2023-07-16T09:31:04;100786.39;;;30.72;31.53
38452;BME280;24231;52.514;13.438;2023-07-16T09:33:32;100793.10;;;30.86;31.93
38452;BME280;24231;52.514;13.438;2023-07-16T09:35:59;100786.81;;;31.12;32.04
38452;BME280;24231;52.514;13.438;2023-07-16T09:38:27;100788.96;;;32.10;30.44
38452;BME280;24231;52.514;13.438;2023-07-16T09:40:56;100791.14;;;31.53;30.99
38452;BME280;24231;52.514;13.438;2023-07-16T09:43:23;100793.71;;;32.06;29.97
38452;BME280;24231;52.514;13.438;2023-07-16T09:45:50;100795.91;;;32.59;28.93
38452;BME280;24231;52.514;13.438;2023-07-16T09:48:18;100790.60;;;31.18;30.50
38452;BME280;24231;52.514;13.438;2023-07-16T09:50:49;100795.04;;;32.10;29.01
38452;BME280;24231;52.514;13.438;2023-07-16T09:53:19;100799.63;;;32.01;29.89
38452;BME280;24231;52.514;13.438;2023-07-16T09:55:46;100803.62;;;32.73;28.74
38452;BME280;24231;52.514;13.438;2023-07-16T09:58:14;100799.99;;;32.90;29.52
38452;BME280;24231;52.514;13.438;2023-07-16T10:00:43;100796.50;;;33.09;27.40
38452;BME280;24231;52.514;13.438;2023-07-16T10:03:11;100805.50;;;32.62;28.80
38452;BME280;24231;52.514;13.438;2023-07-16T10:05:39;100806.10;;;33.06;27.80
38452;BME280;24231;52.514;13.438;2023-07-16T10:08:16;100815.11;;;32.85;28.30
38452;BME280;24231;52.514;13.438;2023-07-16T10:10:45;100815.39;;;32.35;28.67
38452;BME280;24231;52.514;13.438;2023-07-16T10:13:13;100817.40;;;32.06;28.93
38452;BME280;24231;52.514;13.438;2023-07-16T10:15:51;100815.43;;;32.28;29.03
38452;BME280;24231;52.514;13.438;2023-07-16T10:18:27;100811.02;;;32.87;27.89
38452;BME280;24231;52.514;13.438;2023-07-16T10:21:00;100811.04;;;32.39;28.28
38452;BME280;24231;52.514;13.438;2023-07-16T10:23:37;100804.67;;;33.17;28.35
38452;BME280;24231;52.514;13.438;2023-07-16T10:26:06;100806.42;;;32.81;28.76
38452;BME280;24231;52.514;13.438;2023-07-16T10:28:34;100806.23;;;32.03;28.44
38452;BME280;24231;52.514;13.438;2023-07-16T10:31:01;100802.53;;;32.33;28.21
38452;BME280;24231;52.514;13.438;2023-07-16T10:33:28;100803.40;;;32.57;27.72
38452;BME280;24231;52.514;13.438;2023-07-16T10:35:57;100803.02;;;32.67;28.67
38452;BME280;24231;52.514;13.438;2023-07-16T10:38:25;100804.64;;;32.19;28.64
38452;BME280;24231;52.514;13.438;2023-07-16T10:40:53;100809.24;;;31.77;29.36
38452;BME280;24231;52.514;13.438;2023-07-16T10:43:24;100815.82;;;31.83;29.62
38452;BME280;24231;52.514;13.438;2023-07-16T10:45:53;100811.99;;;31.67;28.64
38452;BME280;24231;52.514;13.438;2023-07-16T10:48:24;100813.19;;;31.51;29.24
38452;BME280;24231;52.514;13.438;2023-07-16T10:50:53;100822.40;;;32.10;29.47
38452;BME280;24231;52.514;13.438;2023-07-16T10:53:21;100825.39;;;32.37;28.91
38452;BME280;24231;52.514;13.438;2023-07-16T10:55:48;100820.73;;;31.12;30.11
38452;BME280;24231;52.514;13.438;2023-07-16T10:58:16;100823.65;;;32.22;28.67
38452;BME280;24231;52.514;13.438;2023-07-16T11:00:44;100823.81;;;32.38;28.49
38452;BME280;24231;52.514;13.438;2023-07-16T11:03:15;100828.09;;;32.38;28.54
38452;BME280;24231;52.514;13.438;2023-07-16T11:05:45;100824.57;;;31.36;29.98
38452;BME280;24231;52.514;13.438;2023-07-16T11:08:21;100826.28;;;31.49;29.56
38452;BME280;24231;52.514;13.438;2023-07-16T11:10:54;100829.97;;;31.32;29.89
38452;BME280;24231;52.514;13.438;2023-07-16T11:13:27;100828.32;;;32.21;29.95
38452;BME280;24231;52.514;13.438;2023-07-16T11:15:56;100829.31;;;31.05;31.10
38452;BME280;24231;52.514;13.438;2023-07-16T11:18:23;100825.52;;;31.19;30.26
38452;BME280;24231;52.514;13.438;2023-07-16T11:20:52;100822.14;;;31.49;30.21
38452;BME280;24231;52.514;13.438;2023-07-16T11:23:42;100826.10;;;31.21;30.93
38452;BME280;24231;52.514;13.438;2023-07-16T11:26:09;100828.67;;;31.03;31.43
38452;BME280;24231;52.514;13.438;2023-07-16T11:28:37;100826.29;;;31.41;31.18
38452;BME280;24231;52.514;13.438;2023-07-16T11:31:10;100827.26;;;30.54;31.99
38452;BME280;24231;52.514;13.438;2023-07-16T11:33:37;100820.46;;;29.42;33.24
38452;BME280;24231;52.514;13.438;2023-07-16T11:36:05;100825.29;;;30.27;32.29
38452;BME280;24231;52.514;13.438;2023-07-16T11:38:38;100823.67;;;31.93;30.57
38452;BME280;24231;52.514;13.438;2023-07-16T11:41:06;100820.69;;;31.36;31.50
38452;BME280;24231;52.514;13.438;2023-07-16T11:43:35;100817.67;;;30.82;31.77
38452;BME280;24231;52.514;13.438;2023-07-16T11:46:03;100820.19;;;30.52;32.35
38452;BME280;24231;52.514;13.438;2023-07-16T11:48:36;100818.24;;;30.49;32.34
38452;BME280;24231;52.514;13.438;2023-07-16T11:51:11;100814.54;;;30.43;32.39
38452;BME280;24231;52.514;13.438;2023-07-16T11:53:38;100816.71;;;30.65;31.13
38452;BME280;24231;52.514;13.438;2023-07-16T11:56:06;100815.42;;;30.97;30.70
38452;BME280;24231;52.514;13.438;2023-07-16T11:58:43;100817.94;;;30.18;30.80
38452;BME280;24231;52.514;13.438;2023-07-16T12:01:10;100818.00;;;31.35;29.95
38452;BME280;24231;52.514;13.438;2023-07-16T12:03:38;100817.53;;;30.31;30.56
38452;BME280;24231;52.514;13.438;2023-07-16T12:06:05;100806.81;;;29.81;29.31
38452;BME280;24231;52.514;13.438;2023-07-16T12:08:33;100809.94;;;30.85;27.70
38452;BME280;24231;52.514;13.438;2023-07-16T12:11:00;100810.82;;;30.02;29.41
38452;BME280;24231;52.514;13.438;2023-07-16T12:13:41;100812.01;;;29.56;30.41
38452;BME280;24231;52.514;13.438;2023-07-16T12:16:08;100818.60;;;30.63;27.84
38452;BME280;24231;52.514;13.438;2023-07-16T12:18:35;100822.07;;;29.59;27.87
38452;BME280;24231;52.514;13.438;2023-07-16T12:21:08;100816.63;;;28.97;28.45
38452;BME280;24231;52.514;13.438;2023-07-16T12:23:35;100818.98;;;29.02;27.40
38452;BME280;24231;52.514;13.438;2023-07-16T12:26:03;100825.82;;;28.78;27.16
38452;BME280;24231;52.514;13.438;2023-07-16T12:28:30;100818.19;;;29.51;25.98
38452;BME280;24231;52.514;13.438;2023-07-16T12:30:58;100820.66;;;29.43;26.46
38452;BME280;24231;52.514;13.438;2023-07-16T12:33:25;100819.34;;;30.23;25.45
38452;BME280;24231;52.514;13.438;2023-07-16T12:35:53;100817.34;;;30.14;24.00
38452;BME280;24231;52.514;13.438;2023-07-16T12:38:20;100811.56;;;29.54;24.84
38452;BME280;24231;52.514;13.438;2023-07-16T12:40:48;100820.24;;;30.10;25.04
38452;BME280;24231;52.514;13.438;2023-07-16T12:43:15;100827.34;;;28.76;25.73
38452;BME280;24231;52.514;13.438;2023-07-16T12:45:42;100819.82;;;29.55;25.31